Time;durP1;ratioP1;P1;durP2;ratioP2;P2;SDS_P1;SDS_P2;PMS_P1;PMS_P2;Temp;Humidity;BMP_temperature;BMP_pressure;BME280_temperature;BME280_humidity;BME280_pressure;Samples;Min_cycle;Max_cycle;Signal;HPM_P1;HPM_P2
2023/04/08 00:00:26;;;;;;;;;;;;;;;9.67;69.80;100173.72;1086922;54;19943;-79
2023/04/08 00:01:27;;;;;;;;;;;;;;;9.60;70.26;100178.75;1087467;54;20619;-79
2023/04/08 00:02:31;;;;;;;;;;;;;;;9.61;70.17;100177.75;1087446;54;19942;-79
2023/04/08 00:03:32;;;;;;;;;;;;;;;9.60;69.90;100177.91;1087462;54;19942;-80
2023/04/08 00:04:36;;;;;;;;;;;;;;;9.62;69.92;100179.47;1087384;54;19945;-79
2023/04/08 00:05:37;;;;;;;;;;;;;;;9.59;70.33;100176.22;1088952;46;19965;-78
2023/04/08 00:06:41;;;;;;;;;;;;;;;9.62;70.06;100173.28;1087620;46;19990;-80
2023/04/08 00:07:43;;;;;;;;;;;;;;;9.62;69.90;100173.28;1087915;47;19950;-78
2023/04/08 00:08:46;;;;;;;;;;;;;;;9.63;69.74;100175.81;1087401;54;19942;-80
2023/04/08 00:09:48;;;;;;;;;;;;;;;9.59;69.70;100170.88;1088767;46;19942;-80
2023/04/08 00:10:52;;;;;;;;;;;;;;;9.57;70.19;100176.34;1087500;54;19949;-79
2023/04/08 00:11:53;;;;;;;;;;;;;;;9.52;70.51;100174.09;1087402;54;19949;-79
2023/04/08 00:12:57;;;;;;;;;;;;;;;9.56;70.35;100173.81;1087870;47;19943;-80
2023/04/08 00:14:01;;;;;;;;;;;;;;;9.56;69.96;100172.00;1088880;39;20593;-81
2023/04/08 00:15:06;;;;;;;;;;;;;;;9.59;69.79;100176.22;1087441;54;20049;-79
2023/04/08 00:16:07;;;;;;;;;;;;;;;9.59;69.60;100174.38;1087639;54;19950;-78
2023/04/08 00:17:10;;;;;;;;;;;;;;;9.61;69.65;100177.75;1087521;54;19950;-80
2023/04/08 00:18:12;;;;;;;;;;;;;;;9.61;69.71;100176.94;1087596;54;19942;-79
2023/04/08 00:19:17;;;;;;;;;;;;;;;9.59;69.20;100174.38;1087442;54;19949;-79
2023/04/08 00:20:18;;;;;;;;;;;;;;;9.56;69.41;100176.47;1087487;54;19942;-79
2023/04/08 00:21:22;;;;;;;;;;;;;;;9.51;69.74;100177.75;1087444;54;19943;-78
2023/04/08 00:22:23;;;;;;;;;;;;;;;9.49;69.63;100179.69;1087372;54;19942;-81
2023/04/08 00:23:27;;;;;;;;;;;;;;;9.46;69.69;100182.63;1087490;54;19942;-79
2023/04/08 00:24:28;;;;;;;;;;;;;;;9.41;69.77;100182.19;1087301;54;19957;-79
2023/04/08 00:25:32;;;;;;;;;;;;;;;9.38;69.70;100178.94;1087466;54;19946;-78
2023/04/08 00:26:33;;;;;;;;;;;;;;;9.36;69.87;100179.06;1087457;54;21195;-79
2023/04/08 00:27:37;;;;;;;;;;;;;;;9.36;69.96;100189.72;1087451;54;19986;-79
2023/04/08 00:28:38;;;;;;;;;;;;;;;9.37;69.84;100178.09;1087338;54;19950;-79
2023/04/08 00:29:45;;;;;;;;;;;;;;;9.34;70.04;100183.72;1087368;54;19954;-78
2023/04/08 00:30:46;;;;;;;;;;;;;;;9.35;70.29;100178.22;1087358;54;19949;-79
2023/04/08 00:31:50;;;;;;;;;;;;;;;9.35;70.05;100182.75;1087271;54;19942;-79
2023/04/08 00:32:51;;;;;;;;;;;;;;;9.36;70.17;100179.06;1087781;46;19989;-78
2023/04/08 00:33:55;;;;;;;;;;;;;;;9.34;70.12;100181.88;1089003;39;20617;-78
2023/04/08 00:34:56;;;;;;;;;;;;;;;9.37;69.94;100178.09;1087384;54;20026;-80
2023/04/08 00:36:00;;;;;;;;;;;;;;;9.39;69.91;100178.81;1087392;54;19942;-79
2023/04/08 00:37:01;;;;;;;;;;;;;;;9.40;69.92;100182.34;1087266;54;19942;-78
2023/04/08 00:38:06;;;;;;;;;;;;;;;9.41;69.87;100181.34;1087402;54;19942;-79
2023/04/08 00:39:07;;;;;;;;;;;;;;;9.44;69.96;100181.06;1088894;39;20605;-79
2023/04/08 00:40:11;;;;;;;;;;;;;;;9.49;69.74;100177.03;1087488;54;19952;-77
2023/04/08 00:41:12;;;;;;;;;;;;;;;9.51;69.48;100183.09;1088002;46;19942;-79
2023/04/08 00:42:16;;;;;;;;;;;;;;;9.53;69.23;100190.94;1087348;54;19949;-80
2023/04/08 00:43:19;;;;;;;;;;;;;;;9.56;69.35;100182.66;1087610;54;19965;-79
2023/04/08 00:44:23;;;;;;;;;;;;;;;9.59;69.39;100181.56;1087440;54;20898;-78
2023/04/08 00:45:27;;;;;;;;;;;;;;;9.58;69.12;100183.38;1089355;39;20784;-78
2023/04/08 00:46:31;;;;;;;;;;;;;;;9.51;69.38;100179.53;1087440;54;19998;-78
2023/04/08 00:47:32;;;;;;;;;;;;;;;9.54;69.23;100187.28;1087300;54;19950;-79
2023/04/08 00:49:52;;;;;;;;;;;;;;;9.58;69.03;100179.84;1087388;54;19943;-79
2023/04/08 00:50:53;;;;;;;;;;;;;;;9.55;69.00;100189.00;1087411;54;19966;-77
2023/04/08 00:51:57;;;;;;;;;;;;;;;9.54;69.31;100184.63;1087372;54;19943;-79
2023/04/08 00:52:58;;;;;;;;;;;;;;;9.52;68.87;100192.78;1087431;54;19966;-79
2023/04/08 00:54:03;;;;;;;;;;;;;;;9.52;68.88;100190.09;1087381;54;19943;-78
2023/04/08 00:55:05;;;;;;;;;;;;;;;9.52;68.74;100194.59;1087398;54;19950;-79
2023/04/08 00:56:09;;;;;;;;;;;;;;;9.52;69.09;100191.91;1087409;54;19942;-78
2023/04/08 00:57:10;;;;;;;;;;;;;;;9.51;68.93;100188.41;1087332;54;20255;-78
2023/04/08 00:58:14;;;;;;;;;;;;;;;9.45;69.22;100186.25;1087430;54;19942;-78
2023/04/08 00:59:16;;;;;;;;;;;;;;;9.45;69.15;100188.94;1087408;54;19950;-79
2023/04/08 01:00:20;;;;;;;;;;;;;;;9.48;69.07;100196.69;1087375;54;19950;-80
2023/04/08 01:01:28;;;;;;;;;;;;;;;9.42;69.33;100199.03;1086697;54;19942;-79
2023/04/08 01:02:35;;;;;;;;;;;;;;;9.34;69.66;100195.22;1087348;54;19943;-78
2023/04/08 01:03:41;;;;;;;;;;;;;;;9.43;69.23;100196.25;1087365;54;19998;-79
2023/04/08 01:04:51;;;;;;;;;;;;;;;9.34;69.64;100197.88;1087424;54;19949;-79
2023/04/08 01:05:55;;;;;;;;;;;;;;;9.36;69.16;100197.75;1087429;54;19949;-78
2023/04/08 01:07:03;;;;;;;;;;;;;;;9.32;69.23;100201.66;1088927;47;19946;-79
2023/04/08 01:08:05;;;;;;;;;;;;;;;9.29;69.45;100189.44;1087397;54;19950;-79
2023/04/08 01:09:10;;;;;;;;;;;;;;;9.27;69.51;100196.72;1087496;54;19949;-79
2023/04/08 01:10:12;;;;;;;;;;;;;;;9.27;69.31;100198.53;1087466;54;19943;-78
2023/04/08 01:11:16;;;;;;;;;;;;;;;9.25;69.28;100203.19;1087653;54;20023;-79
2023/04/08 01:12:21;;;;;;;;;;;;;;;9.24;69.65;100198.81;1088117;54;19934;-79
2023/04/08 01:13:25;;;;;;;;;;;;;;;9.22;69.70;100198.94;1088123;54;19934;-80
2023/04/08 01:14:38;;;;;;;;;;;;;;;;;;;;;
2023/04/08 01:15:57;;;;;;;;;;;;;;;9.28;69.64;100197.56;1088526;47;19954;-80
2023/04/08 01:17:02;;;;;;;;;;;;;;;9.32;69.43;100199.84;1092184;47;19943;-80
2023/04/08 01:18:15;;;;;;;;;;;;;;;9.34;69.19;100194.38;1088154;54;19931;-79
2023/04/08 01:19:21;;;;;;;;;;;;;;;9.27;69.35;100196.72;1088760;47;19950;-79
2023/04/08 01:20:25;;;;;;;;;;;;;;;9.27;69.49;100202.06;1088011;54;19943;-80
2023/04/08 01:21:27;;;;;;;;;;;;;;;9.29;69.41;100196.59;1087835;54;19939;-79
2023/04/08 01:22:38;;;;;;;;;;;;;;;9.28;69.45;100200.22;1087743;47;19990;-79
2023/04/08 01:23:43;;;;;;;;;;;;;;;9.28;69.29;100198.44;1087363;54;19949;-80
2023/04/08 01:24:48;;;;;;;;;;;;;;;9.28;69.33;100197.56;1088801;39;20141;-79
2023/04/08 01:25:52;;;;;;;;;;;;;;;9.28;69.41;100195.75;1087360;54;19966;-79
2023/04/08 01:26:57;;;;;;;;;;;;;;;9.27;69.36;100193.19;1087393;54;19972;-81
2023/04/08 01:27:59;;;;;;;;;;;;;;;9.15;70.33;100201.31;1087304;54;19970;-79
2023/04/08 01:29:04;;;;;;;;;;;;;;;9.11;70.67;100199.03;1087882;39;20544;-80
2023/04/08 01:30:06;;;;;;;;;;;;;;;9.09;70.86;100192.97;1087369;54;19942;-79
2023/04/08 01:31:13;;;;;;;;;;;;;;;9.01;71.46;100197.16;1087239;54;19969;-79
2023/04/08 01:32:15;;;;;;;;;;;;;;;9.01;71.55;100193.63;1087353;54;19942;-78
2023/04/08 01:33:21;;;;;;;;;;;;;;;9.01;71.40;100193.63;1087452;54;19949;-79
2023/04/08 01:34:24;;;;;;;;;;;;;;;8.99;71.46;100191.09;1087360;54;19990;-79
2023/04/08 01:35:28;;;;;;;;;;;;;;;8.96;71.67;100193.19;1087428;54;19950;-79
2023/04/08 01:36:31;;;;;;;;;;;;;;;8.99;71.54;100187.56;1087376;54;19943;-79
2023/04/08 01:37:35;;;;;;;;;;;;;;;8.98;71.43;100191.22;1087286;54;19998;-79
2023/04/08 01:38:38;;;;;;;;;;;;;;;8.99;71.41;100199.09;1089006;39;20609;-79
2023/04/08 01:39:43;;;;;;;;;;;;;;;9.02;71.55;100203.31;1087278;54;19943;-78
2023/04/08 01:40:46;;;;;;;;;;;;;;;8.99;71.53;100196.44;1087542;54;19942;-79
2023/04/08 01:41:56;;;;;;;;;;;;;;;8.89;72.29;100193.69;1088188;39;20491;-80
2023/04/08 01:42:58;;;;;;;;;;;;;;;8.81;72.84;100201.50;1087756;54;19954;-77
2023/04/08 01:44:02;;;;;;;;;;;;;;;8.79;73.14;100198.09;1088030;54;20673;-78
2023/04/08 01:45:06;;;;;;;;;;;;;;;8.80;72.99;100199.81;1088314;54;19926;-78
2023/04/08 01:46:11;;;;;;;;;;;;;;;8.81;73.31;100198.84;1088387;54;19950;-79
2023/04/08 01:47:13;;;;;;;;;;;;;;;8.81;73.30;100203.34;1088898;46;19942;-79
2023/04/08 01:48:17;;;;;;;;;;;;;;;8.81;73.30;100190.00;1093492;46;19938;-78
2023/04/08 01:49:19;;;;;;;;;;;;;;;8.75;73.65;100196.69;1090992;46;19950;-78
2023/04/08 01:50:30;;;;;;;;;;;;;;;8.81;73.42;100195.34;1092764;46;19943;-79
2023/04/08 01:51:32;;;;;;;;;;;;;;;8.83;72.96;100196.88;1087844;47;19938;-79
2023/04/08 01:52:36;;;;;;;;;;;;;;;8.85;72.94;100200.28;1088321;46;19943;-79
2023/04/08 01:53:38;;;;;;;;;;;;;;;8.87;72.94;100194.81;1087599;54;19938;-79
2023/04/08 01:54:41;;;;;;;;;;;;;;;8.82;73.60;100197.84;1087660;54;19947;-78
2023/04/08 01:55:44;;;;;;;;;;;;;;;8.81;73.66;100196.16;1087589;54;19950;-78
2023/04/08 01:56:48;;;;;;;;;;;;;;;8.78;73.86;100196.44;1087556;54;19943;-79
2023/04/08 01:57:52;;;;;;;;;;;;;;;8.81;73.08;100201.50;1087777;54;19950;-82
2023/04/08 01:58:57;;;;;;;;;;;;;;;8.78;73.45;100192.91;1087932;54;19943;-77
2023/04/08 02:00:00;;;;;;;;;;;;;;;8.79;73.47;100195.44;1087866;46;19943;-78
2023/04/08 02:01:04;;;;;;;;;;;;;;;8.77;73.64;100200.09;1087912;54;19934;-80
2023/04/08 02:02:08;;;;;;;;;;;;;;;8.79;73.58;100202.59;1087442;54;19949;-80
2023/04/08 02:03:13;;;;;;;;;;;;;;;8.73;74.20;100203.97;1087699;54;19946;-79
2023/04/08 02:04:14;;;;;;;;;;;;;;;8.74;73.93;100205.66;1087663;54;19942;-80
2023/04/08 02:05:18;;;;;;;;;;;;;;;8.73;74.21;100198.63;1089955;39;20632;-79
2023/04/08 02:06:19;;;;;;;;;;;;;;;8.75;73.92;100202.03;1087677;54;19942;-79
2023/04/08 02:07:23;;;;;;;;;;;;;;;8.77;73.75;100201.88;1089084;39;20545;-79
2023/04/08 02:08:24;;;;;;;;;;;;;;;8.77;74.01;100204.56;1087518;54;19943;-79
2023/04/08 02:09:28;;;;;;;;;;;;;;;8.72;74.23;100203.13;1090162;39;20700;-79
2023/04/08 02:10:31;;;;;;;;;;;;;;;8.71;74.24;100205.91;1087722;54;19942;-80
2023/04/08 02:11:33;;;;;;;;;;;;;;;8.68;74.48;100200.84;1087653;54;19949;-79
2023/04/08 02:12:36;;;;;;;;;;;;;;;8.67;74.78;100199.16;1087636;54;19942;-80
2023/04/08 02:13:40;;;;;;;;;;;;;;;8.62;75.44;100202.22;1087599;54;19947;-78
2023/04/08 02:14:44;;;;;;;;;;;;;;;8.54;76.15;100207.34;1087606;54;19954;-79
2023/04/08 02:15:52;;;;;;;;;;;;;;;8.45;76.58;100205.41;1087668;54;19966;-79
2023/04/08 02:16:57;;;;;;;;;;;;;;;8.54;75.89;100210.84;1087713;54;19949;-79
2023/04/08 02:18:03;;;;;;;;;;;;;;;8.55;75.68;100201.88;1087643;54;19943;-79
2023/04/08 02:19:09;;;;;;;;;;;;;;;8.54;75.89;100199.34;1087605;54;19970;-79
2023/04/08 02:20:15;;;;;;;;;;;;;;;8.57;75.48;100199.06;1087702;54;19954;-79
2023/04/08 02:21:25;;;;;;;;;;;;;;;8.58;75.23;100201.63;1087615;54;19942;-79
2023/04/08 02:22:35;;;;;;;;;;;;;;;8.58;75.16;100201.63;1087599;54;19943;-80
2023/04/08 02:23:40;;;;;;;;;;;;;;;8.60;74.94;100206.00;1087981;39;20226;-80
2023/04/08 02:24:43;;;;;;;;;;;;;;;8.57;75.49;100202.59;1087512;54;19943;-80
2023/04/08 02:25:50;;;;;;;;;;;;;;;8.59;75.17;100205.13;1087542;54;19943;-79
2023/04/08 02:26:54;;;;;;;;;;;;;;;8.60;75.31;100206.00;1087517;54;19942;-80
2023/04/08 02:28:00;;;;;;;;;;;;;;;8.58;75.15;100208.75;1087530;54;19966;-79
2023/04/08 02:29:05;;;;;;;;;;;;;;;8.58;75.44;100211.44;1087593;54;19995;-79
2023/04/08 02:30:17;;;;;;;;;;;;;;;8.60;75.29;100214.81;1087496;54;19942;-80
2023/04/08 02:31:20;;;;;;;;;;;;;;;8.63;74.90;100203.03;1087503;54;19942;-79
2023/04/08 02:32:28;;;;;;;;;;;;;;;8.61;75.31;100205.00;1087497;54;19950;-81
2023/04/08 02:33:33;;;;;;;;;;;;;;;8.62;75.28;100206.69;1087547;54;19943;-79
2023/04/08 02:34:42;;;;;;;;;;;;;;;8.61;75.61;100207.66;1087577;54;20693;-79
2023/04/08 02:35:46;;;;;;;;;;;;;;;8.58;75.52;100209.63;1088429;39;20186;-80
2023/04/08 02:36:52;;;;;;;;;;;;;;;8.58;75.27;100211.44;1087486;54;19981;-80
2023/04/08 02:37:54;;;;;;;;;;;;;;;8.60;75.44;100208.66;1087564;54;20642;-81
2023/04/08 02:38:59;;;;;;;;;;;;;;;8.63;75.10;100203.03;1087584;54;19942;-80
2023/04/08 02:40:00;;;;;;;;;;;;;;;8.63;75.30;100208.38;1090040;39;20506;-81
2023/04/08 02:41:04;;;;;;;;;;;;;;;8.64;75.16;100210.06;1087531;54;19973;-80
2023/04/08 02:42:07;;;;;;;;;;;;;;;8.63;75.34;100205.72;1087428;54;19942;-82
2023/04/08 02:43:11;;;;;;;;;;;;;;;8.65;74.77;100207.25;1087429;54;19998;-79
2023/04/08 02:44:15;;;;;;;;;;;;;;;8.63;75.01;100203.03;1087586;54;20682;-80
2023/04/08 02:45:19;;;;;;;;;;;;;;;8.57;75.39;100207.94;1087440;54;19998;-80
2023/04/08 02:46:20;;;;;;;;;;;;;;;8.58;75.24;100209.63;1087536;54;19950;-79
2023/04/08 02:47:25;;;;;;;;;;;;;;;8.53;75.68;100211.81;1087818;39;20471;-80
2023/04/08 02:48:26;;;;;;;;;;;;;;;8.54;75.31;100212.66;1087542;54;19965;-78
2023/04/08 02:49:30;;;;;;;;;;;;;;;8.46;76.21;100210.59;1087413;54;19943;-80
2023/04/08 02:50:31;;;;;;;;;;;;;;;8.50;75.50;100213.88;1087572;54;19950;-80
2023/04/08 02:51:35;;;;;;;;;;;;;;;8.51;75.28;100211.09;1087476;54;19958;-79
2023/04/08 02:52:36;;;;;;;;;;;;;;;8.45;75.71;100211.56;1087414;54;19965;-78
2023/04/08 02:53:40;;;;;;;;;;;;;;;8.43;76.15;100221.50;1090853;39;20518;-80
2023/04/08 02:54:41;;;;;;;;;;;;;;;8.39;75.81;100220.09;1087978;39;20413;-78
2023/04/08 02:55:45;;;;;;;;;;;;;;;8.36;76.47;100217.66;1087421;54;19948;-78
2023/04/08 02:56:46;;;;;;;;;;;;;;;8.36;76.01;100213.16;1087592;54;19943;-79
2023/04/08 02:57:50;;;;;;;;;;;;;;;8.33;76.51;100215.25;1087487;54;19942;-78
2023/04/08 02:58:51;;;;;;;;;;;;;;;8.36;75.91;100207.84;1087463;54;19942;-79
2023/04/08 02:59:57;;;;;;;;;;;;;;;8.36;75.85;100218.50;1087607;54;19957;-79
2023/04/08 03:00:58;;;;;;;;;;;;;;;8.36;75.95;100223.00;1087564;54;19942;-77
2023/04/08 03:02:02;;;;;;;;;;;;;;;8.35;75.82;100216.81;1087113;54;19942;-79
2023/04/08 03:03:03;;;;;;;;;;;;;;;8.30;76.28;100221.66;1087626;54;20666;-80
2023/04/08 03:04:07;;;;;;;;;;;;;;;8.28;76.20;100219.13;1088993;39;20559;-79
2023/04/08 03:05:08;;;;;;;;;;;;;;;8.28;76.39;100221.81;1087583;54;19976;-79
2023/04/08 03:06:12;;;;;;;;;;;;;;;8.27;76.25;100225.44;1087612;54;20705;-79
2023/04/08 03:07:13;;;;;;;;;;;;;;;8.26;76.15;100226.41;1087503;54;19949;-79
2023/04/08 03:08:17;;;;;;;;;;;;;;;8.26;76.05;100229.06;1087602;54;19991;-77
2023/04/08 03:09:18;;;;;;;;;;;;;;;8.27;75.96;100222.78;1087438;54;19949;-78
2023/04/08 03:10:22;;;;;;;;;;;;;;;8.30;75.96;100218.19;1087509;54;19989;-77
2023/04/08 03:11:23;;;;;;;;;;;;;;;8.28;75.79;100220.94;1087535;54;19942;-78
2023/04/08 03:12:27;;;;;;;;;;;;;;;8.28;75.85;100220.94;1087437;54;19966;-78
2023/04/08 03:13:30;;;;;;;;;;;;;;;8.32;75.73;100218.88;1087762;46;20313;-79
2023/04/08 03:14:34;;;;;;;;;;;;;;;8.33;75.48;100218.75;1089033;46;19950;-78
2023/04/08 03:15:38;;;;;;;;;;;;;;;8.31;76.04;100222.53;1087574;54;19962;-79
2023/04/08 03:16:43;;;;;;;;;;;;;;;8.31;75.62;100220.69;1087940;46;19942;-79
2023/04/08 03:17:45;;;;;;;;;;;;;;;8.31;75.79;100222.53;1087654;54;20689;-79
2023/04/08 03:18:48;;;;;;;;;;;;;;;8.32;75.62;100216.22;1089142;46;19942;-78
2023/04/08 03:19:50;;;;;;;;;;;;;;;8.30;75.76;100218.19;1089561;39;20131;-78
2023/04/08 03:20:56;;;;;;;;;;;;;;;8.31;75.83;100214.53;1087548;54;19990;-79
2023/04/08 03:21:57;;;;;;;;;;;;;;;8.33;75.71;100220.56;1087418;54;19942;-79
2023/04/08 03:23:01;;;;;;;;;;;;;;;8.24;76.34;100217.69;1087492;54;19949;-79
2023/04/08 03:24:02;;;;;;;;;;;;;;;8.19;76.63;100219.03;1087541;54;19942;-79
2023/04/08 03:25:06;;;;;;;;;;;;;;;8.22;76.46;100216.13;1087608;54;19943;-79
2023/04/08 03:26:07;;;;;;;;;;;;;;;8.25;75.98;100216.72;1087855;54;19942;-79
2023/04/08 03:27:11;;;;;;;;;;;;;;;8.23;76.24;100221.31;1087692;54;19942;-77
2023/04/08 03:28:18;;;;;;;;;;;;;;;8.23;76.28;100217.81;1089857;46;19949;-79
2023/04/08 03:29:22;;;;;;;;;;;;;;;8.24;75.93;100219.53;1087921;54;19943;-78
2023/04/08 03:30:23;;;;;;;;;;;;;;;8.25;75.82;100213.22;1087861;54;19966;-79
2023/04/08 03:31:30;;;;;;;;;;;;;;;8.24;75.95;100220.34;1087755;54;19974;-79
2023/04/08 03:32:31;;;;;;;;;;;;;;;8.24;75.95;100219.53;1088093;54;19931;-80
2023/04/08 03:33:41;;;;;;;;;;;;;;;8.25;75.74;100221.22;1088390;54;19982;-79
2023/04/08 03:34:42;;;;;;;;;;;;;;;8.23;75.56;100216.00;1088571;54;19926;-80
2023/04/08 03:35:49;;;;;;;;;;;;;;;8.20;76.10;100223.38;1088347;54;19934;-79
2023/04/08 03:36:53;;;;;;;;;;;;;;;8.16;76.17;100222.81;1090156;46;19995;-79
2023/04/08 03:37:57;;;;;;;;;;;;;;;8.14;76.43;100223.91;1088260;54;19994;-79
2023/04/08 03:39:02;;;;;;;;;;;;;;;8.15;76.39;100222.94;1088383;54;19950;-79
2023/04/08 03:40:04;;;;;;;;;;;;;;;8.16;76.25;100220.13;1088401;46;19927;-79
2023/04/08 03:41:08;;;;;;;;;;;;;;;8.17;75.97;100223.66;1088130;54;19947;-79
2023/04/08 03:42:09;;;;;;;;;;;;;;;8.14;76.52;100222.06;1094002;46;19938;-79
2023/04/08 03:43:13;;;;;;;;;;;;;;;8.11;76.24;100219.69;1088345;54;19998;-78
2023/04/08 03:44:16;;;;;;;;;;;;;;;8.09;76.32;100221.63;1090522;46;19943;-78
2023/04/08 03:45:20;;;;;;;;;;;;;;;8.03;76.95;100222.13;1087857;54;19934;-77
2023/04/08 03:46:21;;;;;;;;;;;;;;;8.02;76.73;100220.44;1087625;54;19958;-77
2023/04/08 03:47:28;;;;;;;;;;;;;;;7.98;76.81;100219.81;1088032;46;19942;-79
2023/04/08 03:48:30;;;;;;;;;;;;;;;7.96;77.06;100222.59;1087856;54;19950;-78
2023/04/08 03:49:35;;;;;;;;;;;;;;;7.94;76.75;100224.53;1087694;54;19990;-79
2023/04/08 03:50:36;;;;;;;;;;;;;;;7.95;76.94;100222.72;1088013;46;19998;-79
2023/04/08 03:51:40;;;;;;;;;;;;;;;7.93;76.66;100217.53;1087661;54;19998;-78
2023/04/08 03:52:41;;;;;;;;;;;;;;;7.93;76.67;100217.53;1089003;46;19942;-78
2023/04/08 03:53:47;;;;;;;;;;;;;;;7.90;77.27;100220.44;1087630;54;19982;-79
2023/04/08 03:54:48;;;;;;;;;;;;;;;7.90;77.58;100219.56;1088112;54;19942;-78
2023/04/08 03:55:53;;;;;;;;;;;;;;;7.88;77.20;100217.03;1088093;47;19954;-79
2023/04/08 03:56:54;;;;;;;;;;;;;;;7.87;77.04;100226.00;1087828;54;19942;-79
2023/04/08 03:57:58;;;;;;;;;;;;;;;7.88;77.10;100218.88;1088975;46;19943;-79
2023/04/08 03:58:59;;;;;;;;;;;;;;;7.85;77.61;100222.59;1087699;54;19998;-79
2023/04/08 04:00:05;;;;;;;;;;;;;;;7.83;77.56;100227.22;1087768;54;19943;-80
2023/04/08 04:01:06;;;;;;;;;;;;;;;7.84;77.48;100223.56;1087647;54;19966;-79
2023/04/08 04:02:10;;;;;;;;;;;;;;;7.83;77.58;100226.38;1088162;46;19946;-79
2023/04/08 04:03:14;;;;;;;;;;;;;;;7.81;77.91;100223.84;1087298;54;19942;-78
2023/04/08 04:04:20;;;;;;;;;;;;;;;7.80;77.52;100222.97;1087591;54;19949;-79
2023/04/08 04:05:21;;;;;;;;;;;;;;;7.82;77.45;100228.19;1087668;54;19942;-79
2023/04/08 04:06:30;;;;;;;;;;;;;;;7.81;77.49;100223.84;1087599;54;19953;-78
2023/04/08 04:07:33;;;;;;;;;;;;;;;7.82;77.68;100230.84;1088038;46;19939;-79
2023/04/08 04:08:37;;;;;;;;;;;;;;;7.83;77.56;100224.56;1088591;47;19946;-79
2023/04/08 04:09:39;;;;;;;;;;;;;;;7.86;77.03;100226.97;1088142;54;19923;-81
2023/04/08 04:10:43;;;;;;;;;;;;;;;7.83;77.51;100221.91;1088132;54;20627;-79
2023/04/08 04:11:50;;;;;;;;;;;;;;;7.85;77.43;100230.59;1088441;46;19946;-78
2023/04/08 04:12:54;;;;;;;;;;;;;;;7.84;77.35;100223.56;1088155;47;19943;-79
2023/04/08 04:13:56;;;;;;;;;;;;;;;7.84;77.52;100228.06;1088475;46;19939;-80
2023/04/08 04:15:00;;;;;;;;;;;;;;;7.80;77.79;100232.78;1087555;54;19950;-79
2023/04/08 04:16:02;;;;;;;;;;;;;;;7.79;77.94;100231.09;1087575;54;19966;-79
2023/04/08 04:17:06;;;;;;;;;;;;;;;7.78;77.78;100234.72;1087611;54;19969;-78
2023/04/08 04:18:07;;;;;;;;;;;;;;;7.80;77.70;100233.63;1087558;54;19939;-79
2023/04/08 04:19:18;;;;;;;;;;;;;;;7.71;78.41;100238.84;1088650;39;20232;-79
2023/04/08 04:20:20;;;;;;;;;;;;;;;7.76;78.27;100244.63;1088544;46;19969;-78
2023/04/08 04:21:30;;;;;;;;;;;;;;;7.74;77.96;100243.94;1087547;54;19942;-80
2023/04/08 04:22:40;;;;;;;;;;;;;;;7.73;78.29;100232.41;1087523;47;19950;-79
2023/04/08 04:23:46;;;;;;;;;;;;;;;7.72;78.40;100243.19;1087789;46;19962;-79
2023/04/08 04:24:48;;;;;;;;;;;;;;;7.71;78.32;100238.84;1088791;46;19974;-77
2023/04/08 04:25:51;;;;;;;;;;;;;;;7.71;78.07;100241.50;1088081;46;19938;-79
2023/04/08 04:26:53;;;;;;;;;;;;;;;7.74;77.87;100243.94;1087816;46;19943;-81
2023/04/08 04:27:58;;;;;;;;;;;;;;;7.78;77.81;100250.69;1087480;54;19942;-77
2023/04/08 04:28:59;;;;;;;;;;;;;;;7.79;77.71;100239.06;1087641;54;19943;-78
2023/04/08 04:30:04;;;;;;;;;;;;;;;7.83;77.63;100242.34;1087521;54;19943;-79
2023/04/08 04:31:07;;;;;;;;;;;;;;;7.84;77.54;100236.88;1087584;54;20738;-79
2023/04/08 04:32:11;;;;;;;;;;;;;;;7.83;77.48;100240.53;1087695;54;19943;-78
2023/04/08 04:33:12;;;;;;;;;;;;;;;7.80;77.96;100238.09;1087583;54;19981;-80
2023/04/08 04:34:19;;;;;;;;;;;;;;;7.80;77.62;100238.94;1087746;54;19942;-78
2023/04/08 04:35:20;;;;;;;;;;;;;;;7.77;77.72;100238.34;1087626;54;19943;-79
2023/04/08 04:36:24;;;;;;;;;;;;;;;7.74;77.55;100242.09;1087626;54;19954;-78
2023/04/08 04:37:26;;;;;;;;;;;;;;;7.71;78.17;100238.84;1087527;54;19943;-79
2023/04/08 04:38:30;;;;;;;;;;;;;;;7.69;78.02;100241.63;1087548;54;19947;-81
2023/04/08 04:39:31;;;;;;;;;;;;;;;7.67;78.35;100248.88;1087511;54;19949;-79
2023/04/08 04:40:35;;;;;;;;;;;;;;;7.69;78.33;100251.41;1087556;54;19998;-79
2023/04/08 04:41:39;;;;;;;;;;;;;;;7.69;78.12;100246.09;1087471;54;19942;-79
2023/04/08 04:42:43;;;;;;;;;;;;;;;7.69;78.40;100248.75;1087414;54;20657;-79
2023/04/08 04:43:44;;;;;;;;;;;;;;;7.68;78.94;100249.72;1087444;54;19998;-78
2023/04/08 04:44:48;;;;;;;;;;;;;;;7.69;78.47;100254.06;1088113;46;19949;-78
2023/04/08 04:45:49;;;;;;;;;;;;;;;7.70;78.11;100250.44;1087507;54;19942;-78
2023/04/08 04:46:53;;;;;;;;;;;;;;;7.61;79.04;100249.34;1087528;54;19969;-79
2023/04/08 04:47:54;;;;;;;;;;;;;;;7.45;79.80;100247.91;1087501;54;19957;-80
2023/04/08 04:48:58;;;;;;;;;;;;;;;7.38;80.32;100256.47;1087479;54;19935;-79
2023/04/08 04:50:02;;;;;;;;;;;;;;;7.34;80.81;100256.72;1087563;54;20657;-79
2023/04/08 04:51:06;;;;;;;;;;;;;;;7.30;81.31;100252.59;1087548;54;20431;-80
2023/04/08 04:52:07;;;;;;;;;;;;;;;7.23;82.08;100245.19;1087592;54;19934;-79
2023/04/08 04:53:11;;;;;;;;;;;;;;;7.23;81.84;100253.19;1088844;39;20113;-79
2023/04/08 04:54:13;;;;;;;;;;;;;;;7.25;81.82;100248.59;1087562;54;19966;-78
2023/04/08 04:55:17;;;;;;;;;;;;;;;7.30;81.14;100247.28;1087654;47;19939;-79
2023/04/08 04:56:20;;;;;;;;;;;;;;;7.34;81.03;100251.41;1087487;54;19938;-79
2023/04/08 04:57:22;;;;;;;;;;;;;;;7.36;81.09;100253.09;1087997;47;19947;-79
2023/04/08 04:58:26;;;;;;;;;;;;;;;7.37;81.16;100247.66;1087657;47;19987;-78
2023/04/08 04:59:27;;;;;;;;;;;;;;;7.37;80.98;100254.81;1087485;54;19942;-79
2023/04/08 05:00:32;;;;;;;;;;;;;;;7.38;81.20;100256.47;1087526;54;20642;-78
2023/04/08 05:01:34;;;;;;;;;;;;;;;7.38;81.05;100253.81;1087707;47;19980;-79
2023/04/08 05:02:38;;;;;;;;;;;;;;;7.42;80.69;100263.25;1087157;54;19943;-79
2023/04/08 05:03:39;;;;;;;;;;;;;;;7.40;80.97;100262.53;1087566;54;19950;-79
2023/04/08 05:04:43;;;;;;;;;;;;;;;7.36;81.10;100259.25;1087509;54;20225;-78
2023/04/08 05:05:49;;;;;;;;;;;;;;;7.36;81.08;100264.56;1087505;54;20306;-79
2023/04/08 05:06:54;;;;;;;;;;;;;;;7.34;81.18;100264.69;1087574;54;19966;-80
2023/04/08 05:07:55;;;;;;;;;;;;;;;7.31;81.16;100266.75;1087518;54;19942;-80
2023/04/08 05:08:59;;;;;;;;;;;;;;;7.28;81.49;100265.16;1087623;54;19950;-80
2023/04/08 05:10:00;;;;;;;;;;;;;;;7.23;81.78;100267.34;1087449;54;19943;-80
2023/04/08 05:11:04;;;;;;;;;;;;;;;7.21;81.99;100271.09;1087588;54;19942;-80
2023/04/08 05:12:06;;;;;;;;;;;;;;;7.17;82.59;100268.66;1087606;54;19950;-79
2023/04/08 05:13:12;;;;;;;;;;;;;;;7.19;82.35;100265.88;1089444;47;19947;-80
2023/04/08 05:14:13;;;;;;;;;;;;;;;7.22;82.32;100276.28;1087563;54;19943;-79
2023/04/08 05:15:18;;;;;;;;;;;;;;;7.26;81.75;100276.88;1087725;54;19945;-78
2023/04/08 05:16:19;;;;;;;;;;;;;;;7.30;81.26;100273.88;1087766;54;19939;-79
2023/04/08 05:17:23;;;;;;;;;;;;;;;7.34;81.18;100267.38;1087802;54;19942;-79
2023/04/08 05:18:24;;;;;;;;;;;;;;;7.37;81.34;100270.75;1088399;46;19942;-80
2023/04/08 05:19:28;;;;;;;;;;;;;;;7.36;81.34;100271.72;1087834;54;19942;-79
2023/04/08 05:20:31;;;;;;;;;;;;;;;7.38;81.30;100272.41;1087790;54;19942;-82
2023/04/08 05:21:37;;;;;;;;;;;;;;;7.42;80.76;100268.56;1087698;54;19942;-79
2023/04/08 05:22:39;;;;;;;;;;;;;;;7.41;80.87;100274.84;1088033;46;19958;-79
2023/04/08 05:23:43;;;;;;;;;;;;;;;7.45;80.59;100279.81;1088188;46;19966;-80
2023/04/08 05:24:44;;;;;;;;;;;;;;;7.48;80.53;100276.06;1087826;54;19981;-79
2023/04/08 05:25:48;;;;;;;;;;;;;;;7.52;80.18;100279.34;1087779;54;19950;-81
2023/04/08 05:26:51;;;;;;;;;;;;;;;7.53;80.27;100281.91;1087761;54;19949;-79
2023/04/08 05:27:56;;;;;;;;;;;;;;;7.61;79.79;100275.94;1087766;54;19950;-79
2023/04/08 05:28:57;;;;;;;;;;;;;;;7.62;79.66;100280.31;1087771;54;19946;-79
2023/04/08 05:30:01;;;;;;;;;;;;;;;7.62;79.74;100278.50;1087802;54;19954;-79
2023/04/08 05:31:02;;;;;;;;;;;;;;;7.66;79.66;100284.44;1087824;54;19954;-80
2023/04/08 05:32:06;;;;;;;;;;;;;;;7.68;79.41;100281.66;1087723;54;19943;-80
2023/04/08 05:33:07;;;;;;;;;;;;;;;7.68;79.25;100285.19;1088028;46;19938;-79